Carlin, Nevada
Current Conditions -  °F | °C
As of 12:56 PM on Wednesday 26 Nov 2014 (Local Time) from KEKO Reporting Station
Clear Clear  
Wind Chill: 58°   Ceiling: Unl
Heat Index: 58°   Visibility: 10mi
Dew Point: 32°   Wind: 5mph
Humidity: 37%   Direction: 230°SW
Pressure: 30.37"   Gusts: NA
Location:  40.71°N, 116.1°W
Report Text: KEKO 262056Z AUTO 23004KT 10SM CLR 14/00 A3037 RMK AO2 SLP283 T01440000 56024
Loading
Personal Weather Stations






























Interactive Weather Map New forecast layout! Learn more

10-Day Weather Forecast

Advertisements
Track Severe Weather on mobile